Colorado Springs, Colorado
Current Conditions -  °F | °C
As of 3:54 PM on Thursday 23 Oct 2014 (Local Time) from KCOS Reporting Station
Broken Clouds Broken Clouds  
Wind Chill: 70°   Ceiling: 23000
Heat Index: 70°   Visibility: 10mi
Dew Point: 28°   Wind: 6mph
Humidity: 21%   Direction: 160°SSE
Pressure: 30.18"   Gusts: NA
Location:  38.83°N, 104.82°W
Report Text: KCOS 232154Z 16005KT 10SM FEW090 FEW180 BKN230 21/M02 A3018 RMK AO2 SLP167 APPARENT ROTOR CLD SW T02111022
Loading
Personal Weather Stations






























Interactive Weather Map New forecast layout! Learn more

10-Day Weather Forecast

Advertisements
Track Severe Weather on mobile